TimeEST,TemperatureF,Dew PointF,Humidity,Sea Level PressureIn,VisibilityMPH,Wind Direction,Wind SpeedMPH,Gust SpeedMPH,PrecipitationIn,Events,Conditions,WindDirDegrees,DateUTC
12:15 AM,66.2,66.2,100,30.08,10.0,SSW,6.9,-,0.00,,Clear,200,2013-01-16 05:15:00
12:35 AM,66.2,66.2,100,30.07,10.0,South,5.8,-,0.00,,Clear,190,2013-01-16 05:35:00
1:15 AM,66.2,66.2,100,30.06,10.0,SSW,5.8,-,0.00,,Clear,210,2013-01-16 06:15:00
1:35 AM,66.2,66.2,100,30.06,10.0,SSW,9.2,-,0.00,,Clear,200,2013-01-16 06:35:00
1:55 AM,66.2,66.2,100,30.07,10.0,SSW,8.1,-,0.00,,Clear,200,2013-01-16 06:55:00
2:15 AM,66.2,66.2,100,30.06,10.0,SSW,9.2,-,0.00,,Clear,200,2013-01-16 07:15:00
2:35 AM,66.2,66.2,100,30.05,10.0,SSW,8.1,16.1,0.00,,Clear,200,2013-01-16 07:35:00
2:55 AM,66.2,66.2,100,30.05,10.0,SSW,8.1,16.1,0.00,,Clear,210,2013-01-16 07:55:00
3:15 AM,66.2,66.2,100,30.05,10.0,SSW,9.2,-,0.00,,Clear,200,2013-01-16 08:15:00
3:35 AM,64.4,64.4,100,30.05,10.0,SSW,8.1,-,0.00,,Clear,210,2013-01-16 08:35:00
3:55 AM,64.4,64.4,100,30.05,10.0,South,6.9,-,0.00,,Clear,190,2013-01-16 08:55:00
4:15 AM,64.4,64.4,100,30.04,10.0,SSW,9.2,16.1,0.00,,Clear,200,2013-01-16 09:15:00
4:35 AM,64.4,64.4,100,30.04,10.0,SSW,8.1,-,0.00,,Clear,200,2013-01-16 09:35:00
4:55 AM,64.4,64.4,100,30.04,10.0,SSW,8.1,-,0.00,,Clear,200,2013-01-16 09:55:00
5:15 AM,64.4,64.4,100,30.04,10.0,SSW,8.1,-,0.00,,Clear,200,2013-01-16 10:15:00
5:35 AM,64.4,64.4,100,30.04,9.0,SSW,6.9,-,0.00,,Clear,200,2013-01-16 10:35:00
6:50 AM,62.6,62.6,100,30.05,10.0,South,9.2,-,N/A,,Clear,180,2013-01-16 11:50:00
7:50 AM,62.6,62.6,100,30.06,10.0,South,5.8,-,N/A,,Scattered Clouds,180,2013-01-16 12:50:00
8:50 AM,64.4,62.6,94,30.08,10.0,South,5.8,-,N/A,,Clear,180,2013-01-16 13:50:00
9:50 AM,68.0,62.6,83,30.10,10.0,South,11.5,-,N/A,,Clear,180,2013-01-16 14:50:00
10:50 AM,71.6,62.6,73,30.08,10.0,SSW,15.0,20.7,N/A,,Clear,200,2013-01-16 15:50:00
11:50 AM,73.4,60.8,65,30.05,10.0,SSW,6.9,-,N/A,,Clear,210,2013-01-16 16:50:00
12:50 PM,71.6,60.8,69,30.02,10.0,South,8.1,-,N/A,,Clear,180,2013-01-16 17:50:00
3:50 PM,73.4,60.8,65,29.99,10.0,South,11.5,-,N/A,,Clear,170,2013-01-16 20:50:00
4:50 PM,69.8,60.8,73,30.00,10.0,South,9.2,-,N/A,,Clear,180,2013-01-16 21:50:00
5:50 PM,66.2,60.8,83,30.01,10.0,South,6.9,-,N/A,,Clear,180,2013-01-16 22:50:00
6:50 PM,66.2,60.8,83,30.01,10.0,South,6.9,-,N/A,,Clear,170,2013-01-16 23:50:00
7:55 PM,66.2,60.8,83,30.02,10.0,South,6.9,-,N/A,,Clear,180,2013-01-17 00:55:00
8:15 PM,66.2,66.2,100,30.03,10.0,South,6.9,-,0.00,,Clear,190,2013-01-17 01:15:00
8:35 PM,66.2,66.2,100,30.03,10.0,South,5.8,-,0.00,,Clear,190,2013-01-17 01:35:00
8:55 PM,64.4,64.4,100,30.03,10.0,South,5.8,-,0.00,,Clear,190,2013-01-17 01:55:00
9:15 PM,64.4,64.4,100,30.03,10.0,South,8.1,-,0.00,,Clear,190,2013-01-17 02:15:00
9:35 PM,64.4,64.4,100,30.03,10.0,SSW,8.1,-,0.00,,Clear,200,2013-01-17 02:35:00
9:55 PM,64.4,64.4,100,30.02,10.0,South,6.9,-,0.00,,Clear,190,2013-01-17 02:55:00
10:15 PM,64.4,64.4,100,30.02,7.0,South,6.9,-,0.00,,Clear,190,2013-01-17 03:15:00
10:35 PM,64.4,64.4,100,30.02,10.0,South,6.9,-,0.00,,Clear,190,2013-01-17 03:35:00
10:55 PM,64.4,64.4,100,30.02,10.0,SSW,9.2,-,0.00,,Clear,200,2013-01-17 03:55:00
11:15 PM,64.4,64.4,100,30.01,10.0,SSW,8.1,-,0.00,,Partly Cloudy,200,2013-01-17 04:15:00
11:35 PM,64.4,64.4,100,30.01,10.0,SSW,10.4,19.6,0.00,,Mostly Cloudy,200,2013-01-17 04:35:00
11:55 PM,64.4,64.4,100,30.01,10.0,SSW,11.5,18.4,0.00,,Mostly Cloudy,200,2013-01-17 04:55:00